SIA223 YPPH-YMML
Flight info
| Callsign | SIA223 |
|---|---|
| Flight time | N/A |
| Altitude | 37000 |
| Route | PH H18 BURGU Y135 MOSLA/N0486F390 Y135 TEDUS J15 AD V255 BENDO Y12 ARBEY H119 ML |
| Aircraft | A359/H-SDE2E3GHIJ3J4J5LM1ORWXY/LB1D1 |
Departure
| Time | 2026-04-30 07:00 |
|---|---|
| Airport | Perth International Airport (YPPH) |
Arrival
| Time | N/A |
|---|---|
| Airport | Melbourne Airport (YMML) |
| Time | Latitude | Longitude | Altitude | Speed | Heading |
|---|---|---|---|---|---|
| 2026-04-30 06:44 | -31.94052 | 115.97132 | 68 ft | 0 kts | 189° |
| 2026-04-30 06:50 | -31.94042 | 115.97134 | 58 ft | 1 kts | 189° |
| 2026-04-30 06:50 | -31.94032 | 115.97136 | 59 ft | 1 kts | 189° |
| 2026-04-30 06:50 | -31.94022 | 115.97138 | 60 ft | 2 kts | 189° |
| 2026-04-30 06:50 | -31.94011 | 115.97140 | 58 ft | 2 kts | 189° |
| 2026-04-30 06:51 | -31.93999 | 115.97142 | 63 ft | 2 kts | 196° |
| 2026-04-30 06:51 | -31.93988 | 115.97147 | 60 ft | 2 kts | 211° |
| 2026-04-30 06:51 | -31.93983 | 115.97151 | 58 ft | 0 kts | 218° |
| 2026-04-30 06:51 | -31.93980 | 115.97154 | 58 ft | 3 kts | 222° |
| 2026-04-30 06:52 | -31.93971 | 115.97164 | 61 ft | 3 kts | 235° |
| 2026-04-30 06:52 | -31.93962 | 115.97183 | 58 ft | 3 kts | 255° |
| 2026-04-30 06:52 | -31.93960 | 115.97202 | 59 ft | 0 kts | 271° |
| 2026-04-30 06:52 | -31.93958 | 115.97176 | 59 ft | 7 kts | 275° |
| 2026-04-30 06:53 | -31.93944 | 115.97084 | 61 ft | 15 kts | 281° |
| 2026-04-30 06:53 | -31.93924 | 115.96990 | 61 ft | 19 kts | 287° |
| 2026-04-30 06:53 | -31.93976 | 115.96874 | 63 ft | 18 kts | 199° |
| 2026-04-30 06:53 | -31.94112 | 115.96832 | 67 ft | 23 kts | 193° |
| 2026-04-30 06:54 | -31.94287 | 115.96782 | 66 ft | 29 kts | 194° |
| 2026-04-30 06:54 | -31.94498 | 115.96721 | 65 ft | 34 kts | 193° |
| 2026-04-30 06:54 | -31.94740 | 115.96653 | 61 ft | 38 kts | 193° |
| 2026-04-30 06:54 | -31.95007 | 115.96575 | 66 ft | 40 kts | 193° |
| 2026-04-30 06:55 | -31.95283 | 115.96496 | 69 ft | 40 kts | 195° |
| 2026-04-30 06:55 | -31.95541 | 115.96420 | 84 ft | 37 kts | 194° |
| 2026-04-30 06:55 | -31.95751 | 115.96360 | 85 ft | 29 kts | 195° |
| 2026-04-30 06:55 | -31.95885 | 115.96311 | 83 ft | 19 kts | 213° |
| 2026-04-30 06:56 | -31.95906 | 115.96179 | 86 ft | 16 kts | 282° |
| 2026-04-30 06:56 | -31.95877 | 115.96051 | 87 ft | 17 kts | 295° |
| 2026-04-30 06:56 | -31.95780 | 115.95998 | 83 ft | 17 kts | 11° |
| 2026-04-30 06:56 | -31.95728 | 115.96012 | 83 ft | 0 kts | 13° |
| 2026-04-30 06:59 | -31.95688 | 115.96023 | 84 ft | 29 kts | 13° |
| 2026-04-30 06:59 | -31.95263 | 115.96149 | 71 ft | 96 kts | 13° |
| 2026-04-30 07:00 | -31.94433 | 115.96386 | 64 ft | 151 kts | 13° |
| 2026-04-30 07:00 | -31.93257 | 115.96725 | 133 ft | 192 kts | 10° |
| 2026-04-30 07:00 | -31.91973 | 115.97095 | 804 ft | 184 kts | 12° |
| 2026-04-30 07:00 | -31.90776 | 115.97449 | 1573 ft | 176 kts | 12° |
| 2026-04-30 07:01 | -31.89517 | 115.97815 | 1788 ft | 197 kts | 11° |
| 2026-04-30 07:01 | -31.88120 | 115.98236 | 2029 ft | 219 kts | 15° |
| 2026-04-30 07:01 | -31.86780 | 115.99204 | 2386 ft | 235 kts | 52° |
| 2026-04-30 07:01 | -31.86147 | 116.00984 | 2803 ft | 244 kts | 86° |
| 2026-04-30 07:02 | -31.86043 | 116.03019 | 3193 ft | 260 kts | 92° |
| 2026-04-30 07:02 | -31.85986 | 116.05176 | 3771 ft | 268 kts | 90° |
| 2026-04-30 07:02 | -31.85893 | 116.07409 | 4373 ft | 276 kts | 89° |
| 2026-04-30 07:02 | -31.85771 | 116.09683 | 5081 ft | 281 kts | 88° |
| 2026-04-30 07:03 | -31.85624 | 116.11994 | 5702 ft | 287 kts | 85° |
| 2026-04-30 07:03 | -31.85279 | 116.14324 | 6423 ft | 291 kts | 78° |
| 2026-04-30 07:03 | -31.84828 | 116.16663 | 7116 ft | 294 kts | 77° |
| 2026-04-30 07:03 | -31.84362 | 116.19026 | 7850 ft | 298 kts | 77° |
| 2026-04-30 07:04 | -31.83899 | 116.21382 | 8578 ft | 301 kts | 78° |
| 2026-04-30 07:04 | -31.83429 | 116.23791 | 9305 ft | 305 kts | 78° |
| 2026-04-30 07:04 | -31.82952 | 116.26242 | 10023 ft | 309 kts | 78° |
| 2026-04-30 07:04 | -31.82462 | 116.28762 | 10459 ft | 324 kts | 78° |
| 2026-04-30 07:05 | -31.81397 | 116.34229 | 11015 ft | 361 kts | 77° |
| 2026-04-30 07:05 | -31.80822 | 116.37171 | 11338 ft | 376 kts | 77° |
| 2026-04-30 07:05 | -31.80229 | 116.40198 | 11878 ft | 383 kts | 77° |
| 2026-04-30 07:06 | -31.79628 | 116.43268 | 12512 ft | 387 kts | 77° |
| 2026-04-30 07:06 | -31.79020 | 116.46367 | 13139 ft | 391 kts | 77° |
| 2026-04-30 07:06 | -31.78405 | 116.49497 | 13749 ft | 396 kts | 76° |
| 2026-04-30 07:06 | -31.77782 | 116.52670 | 14301 ft | 400 kts | 76° |
| 2026-04-30 07:07 | -31.77151 | 116.55871 | 14834 ft | 405 kts | 76° |
| 2026-04-30 07:07 | -31.76512 | 116.59110 | 15373 ft | 409 kts | 76° |
| 2026-04-30 07:07 | -31.75867 | 116.62378 | 15926 ft | 414 kts | 76° |
| 2026-04-30 07:07 | -31.75216 | 116.65690 | 16472 ft | 418 kts | 76° |
| 2026-04-30 07:08 | -31.74554 | 116.69031 | 17032 ft | 422 kts | 76° |
| 2026-04-30 07:08 | -31.73883 | 116.72408 | 17577 ft | 426 kts | 76° |
| 2026-04-30 07:08 | -31.73205 | 116.75814 | 17957 ft | 429 kts | 76° |
| 2026-04-30 07:08 | -31.72534 | 116.79185 | 18036 ft | 430 kts | 76° |
| 2026-04-30 07:09 | -31.71850 | 116.82616 | 18033 ft | 431 kts | 76° |
| 2026-04-30 07:09 | -31.71165 | 116.86047 | 18030 ft | 431 kts | 75° |
| 2026-04-30 07:09 | -31.70481 | 116.89471 | 18027 ft | 431 kts | 75° |
| 2026-04-30 07:09 | -31.69794 | 116.92901 | 18030 ft | 431 kts | 75° |
| 2026-04-30 07:10 | -31.69108 | 116.96325 | 18029 ft | 430 kts | 75° |
| 2026-04-30 07:10 | -31.68422 | 116.99744 | 18028 ft | 430 kts | 75° |
| 2026-04-30 07:10 | -31.67744 | 117.03170 | 18024 ft | 430 kts | 76° |
| 2026-04-30 07:10 | -31.67319 | 117.06644 | 18024 ft | 431 kts | 86° |
| 2026-04-30 07:11 | -31.67448 | 117.10149 | 18027 ft | 430 kts | 99° |
| 2026-04-30 07:11 | -31.68160 | 117.13555 | 18029 ft | 429 kts | 109° |
| 2026-04-30 07:11 | -31.69158 | 117.16809 | 18022 ft | 429 kts | 112° |
| 2026-04-30 07:11 | -31.70215 | 117.20096 | 18020 ft | 430 kts | 112° |
| 2026-04-30 07:12 | -31.71266 | 117.23379 | 18019 ft | 430 kts | 111° |
| 2026-04-30 07:12 | -31.72314 | 117.26677 | 18022 ft | 430 kts | 111° |
| 2026-04-30 07:12 | -31.73356 | 117.29976 | 18021 ft | 430 kts | 111° |
| 2026-04-30 07:12 | -31.74396 | 117.33277 | 18026 ft | 431 kts | 111° |
| 2026-04-30 07:13 | -31.75436 | 117.36589 | 18340 ft | 434 kts | 111° |
| 2026-04-30 07:13 | -31.76472 | 117.39894 | 18863 ft | 436 kts | 111° |
| 2026-04-30 07:13 | -31.77521 | 117.43245 | 19407 ft | 438 kts | 111° |
| 2026-04-30 07:13 | -31.78577 | 117.46621 | 19909 ft | 442 kts | 111° |
| 2026-04-30 07:14 | -31.79641 | 117.50028 | 20425 ft | 445 kts | 111° |
| 2026-04-30 07:14 | -31.80707 | 117.53444 | 20936 ft | 448 kts | 111° |
| 2026-04-30 07:14 | -31.81788 | 117.56914 | 21470 ft | 452 kts | 111° |
| 2026-04-30 07:14 | -31.82873 | 117.60400 | 21982 ft | 456 kts | 111° |
| 2026-04-30 07:15 | -31.83954 | 117.63877 | 22487 ft | 459 kts | 111° |
| 2026-04-30 07:15 | -31.85056 | 117.67425 | 23014 ft | 463 kts | 111° |
| 2026-04-30 07:15 | -31.86167 | 117.71005 | 23515 ft | 467 kts | 111° |
| 2026-04-30 07:15 | -31.87283 | 117.74608 | 23945 ft | 471 kts | 111° |
| 2026-04-30 07:16 | -31.88410 | 117.78250 | 24371 ft | 474 kts | 111° |
| 2026-04-30 07:16 | -31.89544 | 117.81917 | 24779 ft | 478 kts | 111° |
| 2026-04-30 07:16 | -31.90669 | 117.85561 | 25188 ft | 481 kts | 111° |
| 2026-04-30 07:16 | -31.91815 | 117.89276 | 25621 ft | 484 kts | 111° |
| 2026-04-30 07:17 | -31.92966 | 117.93015 | 26032 ft | 488 kts | 111° |
| 2026-04-30 07:17 | -31.94128 | 117.96792 | 26436 ft | 491 kts | 111° |
| 2026-04-30 07:17 | -31.96467 | 118.04407 | 27262 ft | 497 kts | 111° |
| 2026-04-30 07:18 | -31.97649 | 118.08262 | 27669 ft | 501 kts | 111° |
| 2026-04-30 07:18 | -31.98821 | 118.12093 | 28057 ft | 504 kts | 111° |
| 2026-04-30 07:18 | -32.00015 | 118.15998 | 28455 ft | 507 kts | 111° |
| 2026-04-30 07:18 | -32.01214 | 118.19922 | 28851 ft | 510 kts | 111° |
| 2026-04-30 07:19 | -32.02421 | 118.23881 | 29237 ft | 514 kts | 111° |
| 2026-04-30 07:19 | -32.03631 | 118.27853 | 29604 ft | 517 kts | 111° |
| 2026-04-30 07:19 | -32.04848 | 118.31856 | 29979 ft | 519 kts | 111° |
| 2026-04-30 07:19 | -32.06093 | 118.35870 | 30268 ft | 522 kts | 113° |
| 2026-04-30 07:20 | -32.07674 | 118.39731 | 30503 ft | 524 kts | 123° |
| 2026-04-30 07:20 | -32.09738 | 118.43198 | 30731 ft | 524 kts | 131° |
| 2026-04-30 07:20 | -32.12052 | 118.46542 | 30973 ft | 527 kts | 133° |
| 2026-04-30 07:20 | -32.14399 | 118.49873 | 31210 ft | 530 kts | 133° |
| 2026-04-30 07:21 | -32.16765 | 118.53238 | 31449 ft | 534 kts | 133° |
| 2026-04-30 07:21 | -32.19137 | 118.56622 | 31682 ft | 537 kts | 133° |
| 2026-04-30 07:21 | -32.21521 | 118.60033 | 31904 ft | 540 kts | 133° |
| 2026-04-30 07:21 | -32.23919 | 118.63471 | 32130 ft | 543 kts | 133° |
| 2026-04-30 07:22 | -32.28743 | 118.70400 | 32610 ft | 547 kts | 133° |
| 2026-04-30 07:22 | -32.31160 | 118.73879 | 32925 ft | 548 kts | 133° |
| 2026-04-30 07:22 | -32.33578 | 118.77362 | 33229 ft | 548 kts | 133° |
| 2026-04-30 07:23 | -32.36002 | 118.80857 | 33517 ft | 549 kts | 133° |
| 2026-04-30 07:23 | -32.38389 | 118.84302 | 33786 ft | 550 kts | 133° |
| 2026-04-30 07:23 | -32.40850 | 118.87856 | 34065 ft | 551 kts | 133° |
| 2026-04-30 07:23 | -32.43247 | 118.91323 | 34315 ft | 551 kts | 133° |
| 2026-04-30 07:24 | -32.45673 | 118.94835 | 34602 ft | 551 kts | 133° |
| 2026-04-30 07:24 | -32.48094 | 118.98343 | 34852 ft | 550 kts | 133° |
| 2026-04-30 07:24 | -32.50516 | 119.01854 | 35105 ft | 550 kts | 133° |
| 2026-04-30 07:24 | -32.52935 | 119.05365 | 35363 ft | 550 kts | 133° |
| 2026-04-30 07:25 | -32.55359 | 119.08886 | 35605 ft | 550 kts | 133° |
| 2026-04-30 07:25 | -32.57776 | 119.12400 | 35832 ft | 550 kts | 133° |
| 2026-04-30 07:25 | -32.60193 | 119.15918 | 36062 ft | 550 kts | 133° |
| 2026-04-30 07:25 | -32.62608 | 119.19437 | 36280 ft | 550 kts | 133° |
| 2026-04-30 07:26 | -32.65027 | 119.22964 | 36479 ft | 550 kts | 133° |
| 2026-04-30 07:26 | -32.67412 | 119.26445 | 36673 ft | 551 kts | 133° |
| 2026-04-30 07:26 | -32.69833 | 119.29981 | 36860 ft | 551 kts | 133° |
| 2026-04-30 07:26 | -32.72254 | 119.33521 | 36982 ft | 553 kts | 133° |
| 2026-04-30 07:27 | -32.77132 | 119.40663 | 36994 ft | 557 kts | 132° |
| 2026-04-30 07:27 | -32.82012 | 119.47824 | 36992 ft | 556 kts | 132° |
| 2026-04-30 07:28 | -32.86890 | 119.54996 | 36988 ft | 556 kts | 132° |
| 2026-04-30 07:28 | -32.91719 | 119.62109 | 36987 ft | 556 kts | 132° |
| 2026-04-30 07:29 | -32.96583 | 119.69287 | 36987 ft | 556 kts | 132° |
| 2026-04-30 07:29 | -33.01441 | 119.76470 | 36981 ft | 556 kts | 132° |
| 2026-04-30 07:30 | -33.08715 | 119.87252 | 36979 ft | 556 kts | 132° |
| 2026-04-30 07:31 | -33.13535 | 119.94415 | 36978 ft | 556 kts | 132° |
| 2026-04-30 07:31 | -33.18380 | 120.01628 | 36972 ft | 556 kts | 132° |
| 2026-04-30 07:32 | -33.23219 | 120.08845 | 36972 ft | 556 kts | 132° |
| 2026-04-30 07:32 | -33.28049 | 120.16066 | 36972 ft | 556 kts | 132° |
| 2026-04-30 07:33 | -33.32881 | 120.23301 | 36972 ft | 556 kts | 132° |
| 2026-04-30 07:33 | -33.37709 | 120.30546 | 36970 ft | 556 kts | 131° |
| 2026-04-30 07:34 | -33.42528 | 120.37791 | 36969 ft | 556 kts | 131° |
| 2026-04-30 07:34 | -33.47346 | 120.45050 | 36969 ft | 556 kts | 131° |
| 2026-04-30 07:35 | -33.52131 | 120.52272 | 36967 ft | 556 kts | 131° |
| 2026-04-30 07:35 | -33.56940 | 120.59547 | 36970 ft | 556 kts | 131° |
| 2026-04-30 07:36 | -33.61750 | 120.66837 | 36968 ft | 556 kts | 131° |
| 2026-04-30 07:36 | -33.66550 | 120.74126 | 36969 ft | 556 kts | 131° |
| 2026-04-30 07:37 | -33.71319 | 120.81383 | 36972 ft | 556 kts | 131° |
| 2026-04-30 07:37 | -33.75755 | 120.89028 | 36954 ft | 561 kts | 117° |
| 2026-04-30 07:38 | -33.78919 | 120.97604 | 36959 ft | 562 kts | 113° |
| 2026-04-30 07:38 | -33.81817 | 121.06338 | 36964 ft | 563 kts | 112° |
| 2026-04-30 07:39 | -33.84709 | 121.15091 | 36978 ft | 563 kts | 112° |
| 2026-04-30 07:39 | -33.87617 | 121.23780 | 36959 ft | 563 kts | 113° |
| 2026-04-30 07:40 | -33.90560 | 121.32526 | 36969 ft | 563 kts | 113° |
| 2026-04-30 07:40 | -33.93505 | 121.41293 | 36962 ft | 564 kts | 112° |
| 2026-04-30 07:41 | -33.95942 | 121.48573 | 36968 ft | 564 kts | 112° |
| 2026-04-30 07:41 | -33.99347 | 121.58777 | 36967 ft | 564 kts | 112° |
| 2026-04-30 07:42 | -34.02267 | 121.67555 | 36963 ft | 565 kts | 112° |
| 2026-04-30 07:42 | -34.04709 | 121.74917 | 36958 ft | 565 kts | 112° |
| 2026-04-30 07:43 | -34.07623 | 121.83722 | 36953 ft | 565 kts | 112° |
| 2026-04-30 07:43 | -34.10529 | 121.92530 | 36956 ft | 565 kts | 112° |
| 2026-04-30 07:44 | -34.13415 | 122.01301 | 36947 ft | 565 kts | 112° |
| 2026-04-30 07:44 | -34.16310 | 122.10126 | 36950 ft | 565 kts | 112° |
| 2026-04-30 07:45 | -34.19201 | 122.18961 | 36946 ft | 565 kts | 112° |
| 2026-04-30 07:45 | -34.22086 | 122.27806 | 36943 ft | 565 kts | 112° |
| 2026-04-30 07:46 | -34.24948 | 122.36604 | 36946 ft | 566 kts | 112° |
| 2026-04-30 07:46 | -34.27821 | 122.45460 | 36945 ft | 566 kts | 111° |
| 2026-04-30 07:47 | -34.30691 | 122.54336 | 36940 ft | 566 kts | 111° |
| 2026-04-30 07:47 | -34.33536 | 122.63158 | 36942 ft | 566 kts | 111° |
| 2026-04-30 07:48 | -34.36391 | 122.72039 | 36941 ft | 566 kts | 111° |
| 2026-04-30 07:48 | -34.39240 | 122.80928 | 36940 ft | 566 kts | 111° |
| 2026-04-30 07:49 | -34.42086 | 122.89830 | 36942 ft | 566 kts | 111° |
| 2026-04-30 07:49 | -34.44909 | 122.98689 | 36937 ft | 566 kts | 111° |
| 2026-04-30 07:50 | -34.47742 | 123.07604 | 36936 ft | 567 kts | 111° |
| 2026-04-30 07:50 | -34.50568 | 123.16524 | 36933 ft | 567 kts | 111° |
| 2026-04-30 07:51 | -34.53391 | 123.25460 | 36938 ft | 567 kts | 111° |
| 2026-04-30 07:51 | -34.56209 | 123.34408 | 36936 ft | 567 kts | 111° |
| 2026-04-30 07:52 | -34.59021 | 123.43366 | 36930 ft | 567 kts | 111° |
| 2026-04-30 07:52 | -34.61826 | 123.52325 | 36932 ft | 568 kts | 110° |
| 2026-04-30 07:53 | -34.64627 | 123.61299 | 36929 ft | 568 kts | 110° |
| 2026-04-30 07:53 | -34.67402 | 123.70217 | 36932 ft | 568 kts | 110° |
| 2026-04-30 07:54 | -34.70193 | 123.79214 | 36931 ft | 568 kts | 110° |
| 2026-04-30 07:54 | -34.72976 | 123.88213 | 36932 ft | 568 kts | 110° |
| 2026-04-30 07:55 | -34.75739 | 123.97173 | 36930 ft | 568 kts | 110° |
| 2026-04-30 07:55 | -34.78507 | 124.06178 | 36925 ft | 569 kts | 110° |
| 2026-04-30 07:56 | -34.81271 | 124.15197 | 36932 ft | 569 kts | 110° |
| 2026-04-30 07:56 | -34.84029 | 124.24224 | 36926 ft | 569 kts | 110° |
| 2026-04-30 07:57 | -34.86781 | 124.33263 | 36926 ft | 569 kts | 110° |
| 2026-04-30 07:57 | -34.89532 | 124.42322 | 36922 ft | 570 kts | 110° |
| 2026-04-30 07:58 | -34.92274 | 124.51381 | 36924 ft | 570 kts | 110° |
| 2026-04-30 07:58 | -34.95010 | 124.60447 | 36925 ft | 570 kts | 110° |
| 2026-04-30 07:59 | -34.97722 | 124.69465 | 36922 ft | 570 kts | 109° |
| 2026-04-30 07:59 | -35.00450 | 124.78560 | 36919 ft | 570 kts | 109° |
| 2026-04-30 08:00 | -35.04531 | 124.92226 | 36922 ft | 571 kts | 109° |
| 2026-04-30 08:00 | -35.07240 | 125.01336 | 36920 ft | 571 kts | 109° |
| 2026-04-30 08:01 | -35.09618 | 125.10585 | 36920 ft | 571 kts | 104° |
| 2026-04-30 08:01 | -35.11743 | 125.19866 | 36918 ft | 571 kts | 104° |
| 2026-04-30 08:02 | -35.15015 | 125.33856 | 36914 ft | 571 kts | 105° |
| 2026-04-30 08:03 | -35.19480 | 125.52505 | 36917 ft | 571 kts | 105° |
| 2026-04-30 08:04 | -35.21688 | 125.61778 | 36924 ft | 571 kts | 105° |
| 2026-04-30 08:04 | -35.23541 | 125.69598 | 36921 ft | 571 kts | 105° |